Time;durP1;ratioP1;P1;durP2;ratioP2;P2;SDS_P1;SDS_P2;PMS_P1;PMS_P2;Temp;Humidity;BMP_temperature;BMP_pressure;BME280_temperature;BME280_humidity;BME280_pressure;Samples;Min_cycle;Max_cycle;Signal;HPM_P1;HPM_P2
2022/08/30 00:03:20;;;;;;;2.80;2.38;;;;;;;;;;5124267;27;20068;-78
2022/08/30 00:05:46;;;;;;;6.47;2.42;;;;;;;;;;5145429;27;20046;-78
2022/08/30 00:08:13;;;;;;;3.13;2.40;;;;;;;;;;5125520;27;20047;-78
2022/08/30 00:10:39;;;;;;;2.78;2.08;;;;;;;;;;5135605;27;20061;-78
2022/08/30 00:13:06;;;;;;;2.70;2.13;;;;;;;;;;5132260;27;20043;-79
2022/08/30 00:15:33;;;;;;;5.60;2.30;;;;;;;;;;5140812;27;20546;-79
2022/08/30 00:17:59;;;;;;;3.72;2.20;;;;;;;;;;5144063;27;20045;-78
2022/08/30 00:20:27;;;;;;;3.22;2.17;;;;;;;;;;5145639;27;20043;-78
2022/08/30 00:22:53;;;;;;;3.53;2.47;;;;;;;;;;5144057;27;20053;-78
2022/08/30 00:25:20;;;;;;;4.03;2.20;;;;;;;;;;5152628;27;20053;-78
2022/08/30 00:27:46;;;;;;;4.90;2.22;;;;;;;;;;5122076;27;20039;-78
2022/08/30 00:30:12;;;;;;;2.60;2.38;;;;;;;;;;5121592;27;20046;-78
2022/08/30 00:32:39;;;;;;;4.55;2.33;;;;;;;;;;5128963;27;20042;-78
2022/08/30 00:35:06;;;;;;;2.40;2.20;;;;;;;;;;5133807;27;20052;-78
2022/08/30 00:37:32;;;;;;;2.83;2.20;;;;;;;;;;5136685;27;20046;-78
2022/08/30 00:39:59;;;;;;;4.35;2.40;;;;;;;;;;5129032;27;20058;-78
2022/08/30 00:42:25;;;;;;;4.30;2.47;;;;;;;;;;5147572;27;22410;-78
2022/08/30 00:44:52;;;;;;;2.92;2.13;;;;;;;;;;5134758;27;20087;-79
2022/08/30 00:47:18;;;;;;;3.97;2.03;;;;;;;;;;5142790;27;20066;-79
2022/08/30 00:49:49;;;;;;;3.75;2.20;;;;;;;;;;5125094;27;20401;-78
2022/08/30 00:52:16;;;;;;;2.50;2.00;;;;;;;;;;5124310;27;20041;-78
2022/08/30 00:54:44;;;;;;;5.15;2.58;;;;;;;;;;5130493;27;20065;-78
2022/08/30 00:57:11;;;;;;;2.30;1.95;;;;;;;;;;5138877;27;20043;-78
2022/08/30 00:59:37;;;;;;;3.85;2.38;;;;;;;;;;5134275;27;20143;-78
2022/08/30 01:02:04;;;;;;;2.50;2.30;;;;;;;;;;5130215;27;20043;-78
2022/08/30 01:04:32;;;;;;;5.32;2.15;;;;;;;;;;5127648;27;20048;-79
2022/08/30 01:06:59;;;;;;;3.97;2.20;;;;;;;;;;5160352;27;20043;-78
2022/08/30 01:09:25;;;;;;;2.75;2.20;;;;;;;;;;5144589;27;20047;-79
2022/08/30 01:11:51;;;;;;;3.55;1.90;;;;;;;;;;5127961;27;20430;-78
2022/08/30 01:14:20;;;;;;;2.70;1.98;;;;;;;;;;5148865;27;20038;-78
2022/08/30 01:16:46;;;;;;;3.35;2.03;;;;;;;;;;5139532;27;20478;-78
2022/08/30 01:19:35;;;;;;;3.05;2.00;;;;;;;;;;5151209;27;20082;-78
2022/08/30 01:22:08;;;;;;;3.58;2.38;;;;;;;;;;5141269;27;20530;-78
2022/08/30 01:24:34;;;;;;;4.90;2.17;;;;;;;;;;5107377;27;20048;-78
2022/08/30 01:27:00;;;;;;;4.38;2.70;;;;;;;;;;5113499;27;20088;-79
2022/08/30 01:29:26;;;;;;;4.22;2.10;;;;;;;;;;5110851;27;20071;-79
2022/08/30 01:31:52;;;;;;;2.92;2.15;;;;;;;;;;5096278;27;20540;-78
2022/08/30 01:34:19;;;;;;;3.72;2.15;;;;;;;;;;5096773;27;20040;-79
2022/08/30 01:36:45;;;;;;;5.45;2.58;;;;;;;;;;5111080;27;20039;-78
2022/08/30 01:39:13;;;;;;;5.13;2.22;;;;;;;;;;5108872;27;20129;-77
2022/08/30 01:41:39;;;;;;;2.80;2.10;;;;;;;;;;5108729;27;20075;-78
2022/08/30 01:44:09;;;;;;;4.80;2.20;;;;;;;;;;5103476;27;20470;-78
2022/08/30 01:46:38;;;;;;;2.35;2.00;;;;;;;;;;5099544;27;20046;-79
2022/08/30 01:49:06;;;;;;;3.03;1.90;;;;;;;;;;5104634;27;20100;-79
2022/08/30 01:51:32;;;;;;;2.97;2.05;;;;;;;;;;5105933;27;20035;-78
2022/08/30 01:53:58;;;;;;;2.72;1.98;;;;;;;;;;5108231;27;20043;-78
2022/08/30 01:56:25;;;;;;;3.03;2.00;;;;;;;;;;5101217;27;20075;-78
2022/08/30 01:58:52;;;;;;;5.30;2.20;;;;;;;;;;5111425;27;20120;-79
2022/08/30 02:01:19;;;;;;;1.85;1.70;;;;;;;;;;5107135;27;20046;-78
2022/08/30 02:03:45;;;;;;;2.53;1.95;;;;;;;;;;5104579;27;20067;-78
2022/08/30 02:06:13;;;;;;;2.22;1.88;;;;;;;;;;5104786;27;20282;-78
2022/08/30 02:08:40;;;;;;;5.15;2.50;;;;;;;;;;5112231;27;20051;-79
2022/08/30 02:11:06;;;;;;;3.75;2.00;;;;;;;;;;5109471;27;20047;-79
2022/08/30 02:13:32;;;;;;;5.70;2.00;;;;;;;;;;5109793;27;20044;-78
2022/08/30 02:15:58;;;;;;;2.80;2.00;;;;;;;;;;5107139;27;20122;-78
2022/08/30 02:18:25;;;;;;;3.10;2.13;;;;;;;;;;5104341;27;20127;-78
2022/08/30 02:20:51;;;;;;;3.40;1.95;;;;;;;;;;5098938;27;20038;-78
2022/08/30 02:23:17;;;;;;;2.65;1.85;;;;;;;;;;5105689;27;20048;-78
2022/08/30 02:25:46;;;;;;;5.18;2.00;;;;;;;;;;5108088;27;20055;-78
2022/08/30 02:28:14;;;;;;;2.63;2.00;;;;;;;;;;5104907;27;20480;-78
2022/08/30 02:30:40;;;;;;;4.30;2.25;;;;;;;;;;5124389;27;20051;-78
2022/08/30 02:33:06;;;;;;;4.50;2.42;;;;;;;;;;5108227;27;20410;-78
2022/08/30 02:35:32;;;;;;;4.13;1.90;;;;;;;;;;5103662;27;20055;-78
2022/08/30 02:37:58;;;;;;;3.35;1.83;;;;;;;;;;5101864;27;20612;-78
2022/08/30 02:40:24;;;;;;;3.42;1.90;;;;;;;;;;5107754;27;20039;-78
2022/08/30 02:42:53;;;;;;;3.28;1.70;;;;;;;;;;5113384;27;20038;-78
2022/08/30 02:45:19;;;;;;;3.72;1.85;;;;;;;;;;5105079;27;20046;-78
2022/08/30 02:47:45;;;;;;;2.72;2.00;;;;;;;;;;5102796;27;20063;-78
2022/08/30 02:50:11;;;;;;;4.53;1.90;;;;;;;;;;5096797;27;20047;-79
2022/08/30 02:52:37;;;;;;;3.85;2.33;;;;;;;;;;5107119;27;20134;-78
2022/08/30 02:55:04;;;;;;;2.25;1.90;;;;;;;;;;5102661;27;20048;-78
2022/08/30 02:57:30;;;;;;;3.10;1.88;;;;;;;;;;5100036;27;20057;-78
2022/08/30 02:59:56;;;;;;;2.83;1.98;;;;;;;;;;5104845;27;20475;-79
2022/08/30 03:02:22;;;;;;;6.45;2.15;;;;;;;;;;5105942;27;20057;-78
2022/08/30 03:04:49;;;;;;;5.50;2.13;;;;;;;;;;5105717;27;20049;-78
2022/08/30 03:07:15;;;;;;;3.67;1.90;;;;;;;;;;5108429;27;20035;-78
2022/08/30 03:09:41;;;;;;;7.10;2.03;;;;;;;;;;5089279;28;20106;-79
2022/08/30 03:12:08;;;;;;;3.50;2.13;;;;;;;;;;5108373;27;20039;-79
2022/08/30 03:14:35;;;;;;;3.53;2.00;;;;;;;;;;5101877;28;20051;-79
2022/08/30 03:17:01;;;;;;;2.63;1.90;;;;;;;;;;5110952;27;20047;-78
2022/08/30 03:19:28;;;;;;;3.35;2.17;;;;;;;;;;5105792;28;20048;-78
2022/08/30 03:21:54;;;;;;;3.20;2.10;;;;;;;;;;5111882;27;20047;-78
2022/08/30 03:24:20;;;;;;;3.97;1.98;;;;;;;;;;5130128;27;20145;-78
2022/08/30 03:26:46;;;;;;;4.13;1.80;;;;;;;;;;5140652;27;20494;-79
2022/08/30 03:29:12;;;;;;;3.63;1.95;;;;;;;;;;5147055;27;20054;-78
2022/08/30 03:31:38;;;;;;;5.18;2.50;;;;;;;;;;5123591;27;20034;-79
2022/08/30 03:34:04;;;;;;;3.92;2.42;;;;;;;;;;5149087;27;20138;-79
2022/08/30 03:36:33;;;;;;;3.72;2.20;;;;;;;;;;5119491;27;20041;-79
2022/08/30 03:38:59;;;;;;;4.10;2.30;;;;;;;;;;5124856;27;20034;-78
2022/08/30 03:41:25;;;;;;;5.50;2.28;;;;;;;;;;5138305;27;20558;-78
2022/08/30 03:43:51;;;;;;;2.70;2.25;;;;;;;;;;5121221;27;20042;-78
2022/08/30 03:46:17;;;;;;;4.45;2.30;;;;;;;;;;5147713;27;20471;-79
2022/08/30 03:48:43;;;;;;;4.88;2.65;;;;;;;;;;5149993;27;20070;-78
2022/08/30 03:51:09;;;;;;;3.63;2.35;;;;;;;;;;5150958;27;20425;-79
2022/08/30 03:53:35;;;;;;;5.10;2.40;;;;;;;;;;5151794;27;20126;-79
2022/08/30 03:56:01;;;;;;;5.05;2.70;;;;;;;;;;5127089;27;20117;-79
2022/08/30 03:58:27;;;;;;;3.33;2.33;;;;;;;;;;5148613;27;20051;-79
2022/08/30 04:00:53;;;;;;;5.45;2.90;;;;;;;;;;5123773;27;20056;-79
2022/08/30 04:03:24;;;;;;;3.90;2.55;;;;;;;;;;5139919;27;20133;-79
2022/08/30 04:05:50;;;;;;;4.18;2.63;;;;;;;;;;5129651;27;20133;-79
2022/08/30 04:08:16;;;;;;;3.80;2.40;;;;;;;;;;5125449;27;20038;-78
2022/08/30 04:10:43;;;;;;;3.80;2.58;;;;;;;;;;5143915;27;20061;-79
2022/08/30 04:13:09;;;;;;;2.90;2.70;;;;;;;;;;5148100;27;20078;-78
2022/08/30 04:15:35;;;;;;;3.25;2.80;;;;;;;;;;5132203;27;20062;-78
2022/08/30 04:18:01;;;;;;;3.45;2.53;;;;;;;;;;5151205;27;20371;-78
2022/08/30 04:20:27;;;;;;;5.10;3.00;;;;;;;;;;5124979;27;20047;-78
2022/08/30 04:22:53;;;;;;;5.40;2.72;;;;;;;;;;5133856;27;20051;-78
2022/08/30 04:25:19;;;;;;;4.72;2.83;;;;;;;;;;5129529;27;20126;-79
2022/08/30 04:27:45;;;;;;;6.05;3.42;;;;;;;;;;5145120;27;20042;-79
2022/08/30 04:30:12;;;;;;;5.15;3.17;;;;;;;;;;5153509;27;20062;-78
2022/08/30 04:32:38;;;;;;;7.53;3.17;;;;;;;;;;5129624;27;20053;-79
2022/08/30 04:35:05;;;;;;;3.40;3.10;;;;;;;;;;5133082;27;20046;-78
2022/08/30 04:37:31;;;;;;;3.40;3.10;;;;;;;;;;5126446;27;20038;-79
2022/08/30 04:39:59;;;;;;;4.15;3.20;;;;;;;;;;5147758;27;20053;-79
2022/08/30 04:42:30;;;;;;;4.47;3.00;;;;;;;;;;5146968;27;20051;-79
2022/08/30 04:44:56;;;;;;;4.15;3.40;;;;;;;;;;5145058;27;20079;-79
2022/08/30 04:47:22;;;;;;;6.88;3.15;;;;;;;;;;5127466;27;20490;-79
2022/08/30 04:49:48;;;;;;;4.13;2.92;;;;;;;;;;5121045;27;20043;-79
2022/08/30 04:52:14;;;;;;;3.58;3.28;;;;;;;;;;5146859;27;20031;-78
2022/08/30 04:54:40;;;;;;;4.72;3.50;;;;;;;;;;5148060;27;20370;-79
2022/08/30 04:57:06;;;;;;;5.75;3.10;;;;;;;;;;5119815;27;20050;-78
2022/08/30 04:59:32;;;;;;;5.22;3.38;;;;;;;;;;5151242;27;20091;-78
2022/08/30 05:01:58;;;;;;;4.95;3.42;;;;;;;;;;5148859;27;20041;-78
2022/08/30 05:04:24;;;;;;;4.75;3.47;;;;;;;;;;5130597;27;20394;-79
2022/08/30 05:06:51;;;;;;;4.93;3.50;;;;;;;;;;5151258;27;20031;-78
2022/08/30 05:09:18;;;;;;;6.53;3.60;;;;;;;;;;5149051;27;20043;-78
2022/08/30 05:11:45;;;;;;;6.25;3.15;;;;;;;;;;5132895;27;20042;-78
2022/08/30 05:14:11;;;;;;;4.68;3.53;;;;;;;;;;5127267;27;20054;-78
2022/08/30 05:16:37;;;;;;;14.82;10.77;;;;;;;;;;5127616;27;20035;-79
2022/08/30 05:19:03;;;;;;;7.25;4.45;;;;;;;;;;5157317;27;20397;-79
2022/08/30 05:21:29;;;;;;;5.68;3.60;;;;;;;;;;5149828;27;20042;-78
2022/08/30 05:23:57;;;;;;;5.10;3.83;;;;;;;;;;5123524;27;21090;-78
2022/08/30 05:26:25;;;;;;;5.45;3.50;;;;;;;;;;5155441;27;20049;-79
2022/08/30 05:28:51;;;;;;;5.80;3.80;;;;;;;;;;5151919;27;20134;-79
2022/08/30 05:31:24;;;;;;;4.70;3.90;;;;;;;;;;5145204;27;20397;-78
2022/08/30 05:33:51;;;;;;;3.90;3.50;;;;;;;;;;5125615;27;20052;-79
2022/08/30 05:36:18;;;;;;;5.03;3.78;;;;;;;;;;5148666;27;20038;-78
2022/08/30 05:38:44;;;;;;;5.22;3.60;;;;;;;;;;5150419;27;20526;-78
2022/08/30 05:41:10;;;;;;;4.20;3.20;;;;;;;;;;5152657;27;20043;-78
2022/08/30 05:43:36;;;;;;;5.82;3.70;;;;;;;;;;5144206;27;20039;-79
2022/08/30 05:46:09;;;;;;;5.80;3.70;;;;;;;;;;5121129;27;20134;-79
2022/08/30 05:48:36;;;;;;;4.85;3.65;;;;;;;;;;5116621;27;20115;-78
2022/08/30 05:51:20;;;;;;;5.32;3.38;;;;;;;;;;5147522;27;20053;-78
2022/08/30 05:53:47;;;;;;;4.00;3.40;;;;;;;;;;5124384;27;20047;-78
2022/08/30 05:56:14;;;;;;;3.60;3.30;;;;;;;;;;5122245;27;20045;-79
2022/08/30 05:58:41;;;;;;;5.60;4.03;;;;;;;;;;5155728;27;20043;-78
2022/08/30 06:01:07;;;;;;;5.95;3.70;;;;;;;;;;5143798;27;20038;-78
2022/08/30 06:03:33;;;;;;;7.05;3.60;;;;;;;;;;5118358;27;20092;-78
2022/08/30 06:06:00;;;;;;;3.70;3.40;;;;;;;;;;5117329;27;20162;-78
2022/08/30 06:08:26;;;;;;;5.55;3.45;;;;;;;;;;5134591;27;20042;-78
2022/08/30 06:10:52;;;;;;;3.72;3.42;;;;;;;;;;5136323;27;20558;-78
2022/08/30 06:13:18;;;;;;;3.95;3.08;;;;;;;;;;5116868;27;20039;-78
2022/08/30 06:15:45;;;;;;;4.70;3.45;;;;;;;;;;5150001;27;20050;-78
2022/08/30 06:18:14;;;;;;;4.53;3.63;;;;;;;;;;5138247;27;20107;-78
2022/08/30 06:20:46;;;;;;;6.20;3.58;;;;;;;;;;5114811;27;20043;-78
2022/08/30 06:23:12;;;;;;;4.20;3.20;;;;;;;;;;5138540;27;20197;-78
2022/08/30 06:25:38;;;;;;;5.35;3.40;;;;;;;;;;5135065;27;20039;-79
2022/08/30 06:28:05;;;;;;;6.00;3.55;;;;;;;;;;5124970;27;20042;-78
2022/08/30 06:30:32;;;;;;;4.45;3.40;;;;;;;;;;5141478;27;20398;-78
2022/08/30 06:32:58;;;;;;;6.93;3.50;;;;;;;;;;5124761;27;20534;-79
2022/08/30 06:35:25;;;;;;;5.32;3.20;;;;;;;;;;5146424;27;20123;-78
2022/08/30 06:37:51;;;;;;;5.25;3.00;;;;;;;;;;5127154;27;20038;-78
2022/08/30 06:40:20;;;;;;;4.00;3.45;;;;;;;;;;5138549;27;20034;-79
2022/08/30 06:42:46;;;;;;;3.78;3.30;;;;;;;;;;5155153;27;20046;-79
2022/08/30 06:45:14;;;;;;;4.38;3.35;;;;;;;;;;5149820;27;20059;-79
2022/08/30 06:47:40;;;;;;;3.83;3.45;;;;;;;;;;5162735;27;20515;-79
2022/08/30 06:50:06;;;;;;;4.57;3.60;;;;;;;;;;5136239;27;20042;-79
2022/08/30 06:52:32;;;;;;;6.40;3.60;;;;;;;;;;5159616;27;20073;-79
2022/08/30 06:54:58;;;;;;;4.25;3.42;;;;;;;;;;5130677;27;20047;-79
2022/08/30 06:57:25;;;;;;;5.00;3.42;;;;;;;;;;5131027;27;20039;-78
2022/08/30 06:59:55;;;;;;;4.63;3.10;;;;;;;;;;5153417;27;20053;-79
2022/08/30 07:02:21;;;;;;;8.07;3.35;;;;;;;;;;5130323;27;20049;-80
2022/08/30 07:04:47;;;;;;;8.25;3.30;;;;;;;;;;5129073;27;20046;-80
2022/08/30 07:07:13;;;;;;;4.68;3.10;;;;;;;;;;5128927;27;20398;-78
2022/08/30 07:09:42;;;;;;;6.68;3.15;;;;;;;;;;5136796;27;20049;-79
2022/08/30 07:12:08;;;;;;;4.50;2.90;;;;;;;;;;5148558;27;20046;-78
2022/08/30 07:14:35;;;;;;;7.78;3.08;;;;;;;;;;5132026;27;20560;-79
2022/08/30 07:17:01;;;;;;;3.33;2.58;;;;;;;;;;5133476;27;20049;-79
2022/08/30 07:19:27;;;;;;;2.88;2.58;;;;;;;;;;5144470;27;20527;-79
2022/08/30 07:21:53;;;;;;;4.18;2.83;;;;;;;;;;5128022;27;20133;-79
2022/08/30 07:24:19;;;;;;;4.05;3.13;;;;;;;;;;5128705;27;20070;-78
2022/08/30 07:26:48;;;;;;;3.75;2.30;;;;;;;;;;5144269;27;20083;-79
2022/08/30 07:29:14;;;;;;;3.42;2.72;;;;;;;;;;5122070;27;20510;-79
2022/08/30 07:31:40;;;;;;;4.82;2.72;;;;;;;;;;5136683;27;20417;-79
2022/08/30 07:34:07;;;;;;;2.70;2.22;;;;;;;;;;5133791;27;20043;-79
2022/08/30 07:36:33;;;;;;;5.38;2.35;;;;;;;;;;5134657;27;20088;-79
2022/08/30 07:38:59;;;;;;;3.60;2.50;;;;;;;;;;5144289;27;20038;-79
2022/08/30 07:41:37;;;;;;;2.40;2.17;;;;;;;;;;5130330;27;20705;-80
2022/08/30 07:44:04;;;;;;;3.00;2.47;;;;;;;;;;5168193;27;20050;-81
2022/08/30 07:46:30;;;;;;;3.30;2.30;;;;;;;;;;5115423;27;20043;-81
2022/08/30 07:48:58;;;;;;;3.75;2.88;;;;;;;;;;5132854;27;20050;-80
2022/08/30 07:51:25;;;;;;;3.00;2.22;;;;;;;;;;5131557;27;20039;-80
2022/08/30 07:53:51;;;;;;;3.22;2.40;;;;;;;;;;5118256;27;20049;-81
2022/08/30 07:56:17;;;;;;;2.45;2.25;;;;;;;;;;5114993;27;20039;-82
2022/08/30 07:58:44;;;;;;;5.80;2.58;;;;;;;;;;5116563;27;20046;-83
2022/08/30 08:01:10;;;;;;;3.05;2.70;;;;;;;;;;5116360;27;20039;-81
2022/08/30 08:03:38;;;;;;;5.47;2.90;;;;;;;;;;5122468;27;20092;-81
2022/08/30 08:06:05;;;;;;;3.90;2.38;;;;;;;;;;5116486;27;20137;-81
2022/08/30 08:08:31;;;;;;;3.92;2.75;;;;;;;;;;5124535;27;20188;-82
2022/08/30 08:10:58;;;;;;;2.80;2.40;;;;;;;;;;5115525;27;20046;-81
2022/08/30 08:13:24;;;;;;;4.60;2.60;;;;;;;;;;5144657;27;20049;-81
2022/08/30 08:15:50;;;;;;;3.17;2.28;;;;;;;;;;5133206;27;20599;-82
2022/08/30 08:18:16;;;;;;;2.85;1.90;;;;;;;;;;5143344;27;20468;-80
2022/08/30 08:20:42;;;;;;;2.20;2.00;;;;;;;;;;5122609;27;20045;-79
2022/08/30 08:23:08;;;;;;;2.67;1.90;;;;;;;;;;5120675;27;20058;-80
2022/08/30 08:25:37;;;;;;;4.13;1.80;;;;;;;;;;5141871;27;20039;-80
2022/08/30 08:28:03;;;;;;;4.10;2.30;;;;;;;;;;5114445;27;20134;-80
2022/08/30 08:30:32;;;;;;;2.10;2.00;;;;;;;;;;5139699;27;20054;-81
2022/08/30 08:32:58;;;;;;;4.22;2.03;;;;;;;;;;5122899;27;20047;-81
2022/08/30 08:35:24;;;;;;;2.13;1.92;;;;;;;;;;5133707;27;20049;-80
2022/08/30 08:37:51;;;;;;;3.22;1.92;;;;;;;;;;5120843;27;20105;-79
2022/08/30 08:40:18;;;;;;;5.03;2.03;;;;;;;;;;5114867;27;20057;-80
2022/08/30 08:43:08;;;;;;;2.72;1.85;;;;;;;;;;5134821;27;20050;-80
2022/08/30 08:45:49;;;;;;;4.95;1.70;;;;;;;;;;5138095;27;20054;-80
2022/08/30 08:48:29;;;;;;;2.55;1.80;;;;;;;;;;5114991;27;20043;-80
2022/08/30 08:53:43;;;;;;;3.85;1.98;;;;;;;;;;5134024;27;20043;-80
2022/08/30 08:56:11;;;;;;;3.17;1.88;;;;;;;;;;5124556;27;20031;-80
2022/08/30 08:58:42;;;;;;;2.45;1.75;;;;;;;;;;5147992;27;20035;-79
2022/08/30 09:01:09;;;;;;;3.35;1.80;;;;;;;;;;5143146;27;20455;-80
2022/08/30 09:03:36;;;;;;;4.68;1.98;;;;;;;;;;5123059;27;20050;-79
2022/08/30 09:06:03;;;;;;;3.70;1.90;;;;;;;;;;5156291;27;20081;-79
2022/08/30 09:08:31;;;;;;;2.33;2.00;;;;;;;;;;5146371;27;20042;-79
2022/08/30 09:11:08;;;;;;;3.92;2.20;;;;;;;;;;5121918;27;20051;-80
2022/08/30 09:13:34;;;;;;;2.72;1.80;;;;;;;;;;5115217;27;20509;-81
2022/08/30 09:16:00;;;;;;;2.85;1.95;;;;;;;;;;5137057;27;20499;-80
2022/08/30 09:18:43;;;;;;;3.60;2.22;;;;;;;;;;5122405;27;20054;-81
2022/08/30 09:21:10;;;;;;;2.85;1.92;;;;;;;;;;5134313;27;20046;-77
2022/08/30 09:23:37;;;;;;;2.70;2.17;;;;;;;;;;5117988;27;20494;-80
2022/08/30 09:26:04;;;;;;;3.45;2.10;;;;;;;;;;5144918;27;20084;-81
2022/08/30 09:28:32;;;;;;;2.13;1.90;;;;;;;;;;5130313;27;20545;-81
2022/08/30 09:31:01;;;;;;;2.75;2.10;;;;;;;;;;5115163;27;20031;-81
2022/08/30 09:33:27;;;;;;;2.67;2.25;;;;;;;;;;5115380;27;20042;-80
2022/08/30 09:35:54;;;;;;;2.78;1.90;;;;;;;;;;5117024;27;20047;-79
2022/08/30 09:38:21;;;;;;;3.05;2.00;;;;;;;;;;5139986;27;20031;-80
2022/08/30 09:40:49;;;;;;;1.75;1.65;;;;;;;;;;5123245;27;20050;-80
2022/08/30 09:43:18;;;;;;;2.40;1.90;;;;;;;;;;5139638;27;20073;-81
2022/08/30 09:45:48;;;;;;;2.50;1.80;;;;;;;;;;5115180;27;20035;-81
2022/08/30 09:48:37;;;;;;;5.03;2.10;;;;;;;;;;5118676;27;20086;-80
2022/08/30 09:51:09;;;;;;;2.80;1.80;;;;;;;;;;5137227;27;20050;-81
2022/08/30 09:53:53;;;;;;;2.30;2.10;;;;;;;;;;5127152;27;20069;-80
2022/08/30 09:56:35;;;;;;;5.30;1.70;;;;;;;;;;5147583;27;20043;-81
2022/08/30 09:59:20;;;;;;;2.88;1.98;;;;;;;;;;5139052;27;20039;-81
2022/08/30 10:01:48;;;;;;;2.35;1.63;;;;;;;;;;5149511;27;20117;-80
2022/08/30 10:04:17;;;;;;;2.40;1.98;;;;;;;;;;5149650;27;20524;-81
2022/08/30 10:06:43;;;;;;;5.07;2.15;;;;;;;;;;5153257;27;20439;-80
2022/08/30 10:09:18;;;;;;;2.10;1.90;;;;;;;;;;5137239;27;20501;-80
2022/08/30 10:12:03;;;;;;;3.42;2.10;;;;;;;;;;5121251;27;20050;-82
2022/08/30 10:14:36;;;;;;;2.13;1.70;;;;;;;;;;5144081;27;20096;-84
2022/08/30 10:17:28;;;;;;;3.67;2.00;;;;;;;;;;5134046;27;20047;-82
2022/08/30 10:20:13;;;;;;;2.53;1.75;;;;;;;;;;5133977;27;20482;-81
2022/08/30 10:22:52;;;;;;;2.33;1.73;;;;;;;;;;5128649;27;20512;-82
2022/08/30 10:25:20;;;;;;;2.83;1.90;;;;;;;;;;5122288;27;20043;-81
2022/08/30 10:27:47;;;;;;;3.05;1.80;;;;;;;;;;5144004;27;20058;-84
2022/08/30 10:30:14;;;;;;;4.72;1.90;;;;;;;;;;5147390;27;20400;-82
2022/08/30 10:32:59;;;;;;;2.42;1.80;;;;;;;;;;5140100;27;20066;-82
2022/08/30 10:35:27;;;;;;;2.50;1.75;;;;;;;;;;5118833;27;23409;-81
2022/08/30 10:38:05;;;;;;;1.85;1.60;;;;;;;;;;5113933;27;20058;-82
2022/08/30 10:43:23;;;;;;;1.90;1.70;;;;;;;;;;5111976;27;20043;-83
2022/08/30 10:45:50;;;;;;;1.65;1.55;;;;;;;;;;5134669;27;20106;-83
2022/08/30 10:48:19;;;;;;;2.22;1.70;;;;;;;;;;5128270;27;20419;-83
2022/08/30 10:50:49;;;;;;;1.80;1.70;;;;;;;;;;5127878;27;20043;-83
2022/08/30 10:53:16;;;;;;;2.75;1.77;;;;;;;;;;5108775;27;20088;-81
2022/08/30 10:55:51;;;;;;;3.17;1.60;;;;;;;;;;5136041;27;20047;-80
2022/08/30 10:58:17;;;;;;;2.08;1.60;;;;;;;;;;5112735;27;20126;-83
2022/08/30 11:00:43;;;;;;;2.35;1.70;;;;;;;;;;5152595;27;20046;-83
2022/08/30 11:03:31;;;;;;;1.73;1.63;;;;;;;;;;5149483;27;20379;-81
2022/08/30 11:06:16;;;;;;;2.03;1.77;;;;;;;;;;5146251;27;20043;-80
2022/08/30 11:08:50;;;;;;;5.38;1.77;;;;;;;;;;5134418;27;20050;-81
2022/08/30 11:11:35;;;;;;;2.38;1.65;;;;;;;;;;5148364;27;20060;-81
2022/08/30 11:14:03;;;;;;;3.22;1.60;;;;;;;;;;5119071;27;20054;-80
2022/08/30 11:16:49;;;;;;;2.92;1.70;;;;;;;;;;5125594;27;20049;-81
2022/08/30 11:19:21;;;;;;;2.13;1.60;;;;;;;;;;5123219;27;20129;-78
2022/08/30 11:21:47;;;;;;;2.25;1.50;;;;;;;;;;5135802;27;20486;-81
2022/08/30 11:24:24;;;;;;;2.40;1.40;;;;;;;;;;5137724;27;20387;-80
2022/08/30 11:26:56;;;;;;;1.70;1.60;;;;;;;;;;5134410;27;20047;-80
2022/08/30 11:29:40;;;;;;;1.63;1.52;;;;;;;;;;5120665;27;20050;-81
2022/08/30 11:32:12;;;;;;;3.13;1.50;;;;;;;;;;5121411;27;20126;-82
2022/08/30 11:34:44;;;;;;;2.78;1.40;;;;;;;;;;5136380;27;20122;-83
2022/08/30 11:37:34;;;;;;;2.97;1.70;;;;;;;;;;5112709;27;20090;-81
2022/08/30 11:40:01;;;;;;;2.25;1.40;;;;;;;;;;5106046;27;20147;-80
2022/08/30 11:42:30;;;;;;;2.65;1.70;;;;;;;;;;5123537;27;20043;-81
2022/08/30 11:45:34;;;;;;;1.70;1.60;;;;;;;;;;5124756;27;20491;-82
2022/08/30 11:48:04;;;;;;;3.13;1.40;;;;;;;;;;5057844;28;20048;-81
2022/08/30 11:50:49;;;;;;;4.40;1.60;;;;;;;;;;5102429;27;20065;-81
2022/08/30 11:53:21;;;;;;;1.75;1.65;;;;;;;;;;5152926;27;20034;-86
2022/08/30 11:55:50;;;;;;;1.83;1.60;;;;;;;;;;5124797;27;20043;-86
2022/08/30 11:58:29;;;;;;;2.17;1.40;;;;;;;;;;5115652;27;20054;-84
2022/08/30 12:01:27;;;;;;;1.95;1.50;;;;;;;;;;5140828;27;20506;-84
2022/08/30 12:04:08;;;;;;;2.00;1.50;;;;;;;;;;5074563;27;20069;-84
2022/08/30 12:06:41;;;;;;;1.42;1.33;;;;;;;;;;5110941;27;21691;-84
2022/08/30 12:09:08;;;;;;;2.27;1.60;;;;;;;;;;5113534;27;20118;-85
2022/08/30 12:11:34;;;;;;;2.38;1.38;;;;;;;;;;5148557;27;20486;-85
2022/08/30 12:14:02;;;;;;;1.55;1.40;;;;;;;;;;5148465;27;20039;-85
2022/08/30 12:18:26;;;;;;;1.67;1.40;;;;;;;;;;5139243;27;20035;-84
2022/08/30 12:19:22;;;;;;;2.08;1.30;;;;;;;;;;5127721;27;20055;-84
2022/08/30 12:21:56;;;;;;;3.05;1.55;;;;;;;;;;5116725;27;20515;-85
2022/08/30 12:24:35;;;;;;;1.40;1.30;;;;;;;;;;5134464;27;20036;-84
2022/08/30 12:27:04;;;;;;;1.40;1.30;;;;;;;;;;5129934;27;20081;-84
2022/08/30 12:29:31;;;;;;;1.50;1.40;;;;;;;;;;5114580;27;20047;-84
2022/08/30 12:32:07;;;;;;;5.13;1.65;;;;;;;;;;5127136;27;20039;-83
2022/08/30 12:34:33;;;;;;;1.48;1.38;;;;;;;;;;5130577;27;20417;-83
2022/08/30 12:37:10;;;;;;;1.50;1.40;;;;;;;;;;5119193;27;20034;-85
2022/08/30 12:39:36;;;;;;;3.00;1.50;;;;;;;;;;5116120;27;20085;-83
2022/08/30 12:42:21;;;;;;;3.38;1.52;;;;;;;;;;5112472;27;20417;-82
2022/08/30 12:44:48;;;;;;;3.38;1.40;;;;;;;;;;5119434;27;20093;-83
2022/08/30 12:47:17;;;;;;;3.78;1.42;;;;;;;;;;5129827;27;20035;-86
2022/08/30 12:49:45;;;;;;;3.03;1.55;;;;;;;;;;5152234;27;20147;-83
2022/08/30 12:52:33;;;;;;;1.90;1.40;;;;;;;;;;5140006;27;20047;-85
2022/08/30 12:55:14;;;;;;;1.50;1.40;;;;;;;;;;5127542;27;20084;-85
2022/08/30 12:57:41;;;;;;;3.45;1.60;;;;;;;;;;5137887;27;20045;-86
2022/08/30 13:00:22;;;;;;;2.92;1.50;;;;;;;;;;5146206;27;20516;-83
2022/08/30 13:02:50;;;;;;;3.33;1.33;;;;;;;;;;5120045;27;20081;-84
2022/08/30 13:05:32;;;;;;;1.63;1.52;;;;;;;;;;5141671;27;20050;-84
2022/08/30 13:08:19;;;;;;;3.25;1.45;;;;;;;;;;5141274;27;20114;-85
2022/08/30 13:11:08;;;;;;;1.88;1.50;;;;;;;;;;5140196;27;20126;-85
2022/08/30 13:13:36;;;;;;;2.80;1.60;;;;;;;;;;5117021;27;20441;-85
2022/08/30 13:16:20;;;;;;;1.40;1.30;;;;;;;;;;5122781;27;20043;-85
2022/08/30 13:18:47;;;;;;;2.83;1.75;;;;;;;;;;5121020;27;20046;-84
2022/08/30 13:21:30;;;;;;;3.17;1.65;;;;;;;;;;5137341;27;20050;-84
2022/08/30 13:24:03;;;;;;;1.85;1.45;;;;;;;;;;5116367;27;20071;-84
2022/08/30 13:26:35;;;;;;;1.80;1.30;;;;;;;;;;5140538;27;20050;-85
2022/08/30 13:29:03;;;;;;;1.80;1.30;;;;;;;;;;5120398;27;20047;-85
2022/08/30 13:31:30;;;;;;;1.60;1.50;;;;;;;;;;5118226;27;20039;-85
2022/08/30 13:33:56;;;;;;;2.35;1.40;;;;;;;;;;5134433;27;20053;-86
2022/08/30 13:36:24;;;;;;;2.63;1.60;;;;;;;;;;5116242;27;20043;-86
2022/08/30 13:38:50;;;;;;;2.40;1.40;;;;;;;;;;5125582;27;20047;-85
2022/08/30 13:41:17;;;;;;;2.15;1.38;;;;;;;;;;5128668;27;20043;-86
2022/08/30 13:43:43;;;;;;;2.83;1.60;;;;;;;;;;5142537;27;20047;-86
2022/08/30 13:46:11;;;;;;;5.45;1.63;;;;;;;;;;5134551;27;20147;-84
2022/08/30 13:48:37;;;;;;;1.45;1.35;;;;;;;;;;5134740;27;20112;-82
2022/08/30 13:51:03;;;;;;;1.58;1.48;;;;;;;;;;5133671;27;20035;-86
2022/08/30 13:53:29;;;;;;;1.60;1.50;;;;;;;;;;5141526;27;20035;-85
2022/08/30 13:55:55;;;;;;;2.65;1.60;;;;;;;;;;5135477;27;20087;-85
2022/08/30 13:58:21;;;;;;;2.03;1.63;;;;;;;;;;5132763;27;20050;-86
2022/08/30 14:00:47;;;;;;;3.40;1.52;;;;;;;;;;5119660;27;20036;-85
2022/08/30 14:03:14;;;;;;;1.77;1.40;;;;;;;;;;5141280;27;20043;-85
2022/08/30 14:05:41;;;;;;;1.45;1.35;;;;;;;;;;5117058;27;20053;-86
2022/08/30 14:08:08;;;;;;;2.60;1.42;;;;;;;;;;5137639;27;20124;-85
2022/08/30 14:10:35;;;;;;;3.78;1.52;;;;;;;;;;5115809;27;20047;-86
2022/08/30 14:13:01;;;;;;;3.08;1.40;;;;;;;;;;5131513;27;20137;-86
2022/08/30 14:15:27;;;;;;;2.22;1.50;;;;;;;;;;5114251;27;20168;-85
2022/08/30 14:17:53;;;;;;;1.58;1.48;;;;;;;;;;5137179;27;20037;-86
2022/08/30 14:20:19;;;;;;;2.42;1.38;;;;;;;;;;5115199;27;20042;-87
2022/08/30 14:22:45;;;;;;;2.20;1.40;;;;;;;;;;5117835;27;20046;-86
2022/08/30 14:25:11;;;;;;;2.40;1.42;;;;;;;;;;5136015;27;20168;-86
2022/08/30 14:27:37;;;;;;;3.03;1.40;;;;;;;;;;5120412;27;20126;-87
2022/08/30 14:30:05;;;;;;;1.85;1.17;;;;;;;;;;5143328;27;20117;-87
2022/08/30 14:32:31;;;;;;;2.60;1.17;;;;;;;;;;5118301;27;20050;-87
2022/08/30 14:34:57;;;;;;;2.92;1.30;;;;;;;;;;5116752;27;20130;-88
2022/08/30 14:37:23;;;;;;;2.08;1.40;;;;;;;;;;5132069;27;20047;-87
2022/08/30 14:39:49;;;;;;;1.85;1.20;;;;;;;;;;5117718;27;20035;-89
2022/08/30 14:42:15;;;;;;;2.05;1.13;;;;;;;;;;5141039;27;20050;-87
2022/08/30 14:44:41;;;;;;;1.15;1.10;;;;;;;;;;5123589;27;20043;-90
2022/08/30 14:47:07;;;;;;;1.17;1.08;;;;;;;;;;5125964;27;20038;-88
2022/08/30 14:49:34;;;;;;;1.42;0.95;;;;;;;;;;5128055;27;20046;-87
2022/08/30 14:52:00;;;;;;;2.47;0.93;;;;;;;;;;5149955;27;20394;-88
2022/08/30 14:54:28;;;;;;;1.10;1.10;;;;;;;;;;5114146;27;20051;-89
2022/08/30 14:56:54;;;;;;;1.30;1.20;;;;;;;;;;5134342;27;20466;-89
2022/08/30 14:59:20;;;;;;;1.10;1.00;;;;;;;;;;5132451;27;20448;-88
2022/08/30 15:01:46;;;;;;;1.58;0.90;;;;;;;;;;5134593;27;20110;-89